sensor_id;sensor_type;location;lat;lon;timestamp;P1;durP1;ratioP1;P2;durP2;ratioP2
24559;SDS011;12727;49.934;8.656;2023-07-22T00:00:42;4.03;;;2.92;;
24559;SDS011;12727;49.934;8.656;2023-07-22T00:03:07;3.65;;;2.97;;
24559;SDS011;12727;49.934;8.656;2023-07-22T00:05:33;7.22;;;3.15;;
24559;SDS011;12727;49.934;8.656;2023-07-22T00:07:58;8.90;;;2.97;;
24559;SDS011;12727;49.934;8.656;2023-07-22T00:10:24;4.70;;;2.67;;
24559;SDS011;12727;49.934;8.656;2023-07-22T00:12:49;4.68;;;2.78;;
24559;SDS011;12727;49.934;8.656;2023-07-22T00:15:15;5.78;;;2.90;;
24559;SDS011;12727;49.934;8.656;2023-07-22T00:17:41;3.08;;;2.70;;
24559;SDS011;12727;49.934;8.656;2023-07-22T00:20:07;6.18;;;3.25;;
24559;SDS011;12727;49.934;8.656;2023-07-22T00:22:36;4.68;;;3.17;;
24559;SDS011;12727;49.934;8.656;2023-07-22T00:25:03;7.85;;;3.50;;
24559;SDS011;12727;49.934;8.656;2023-07-22T00:27:29;4.28;;;3.33;;
24559;SDS011;12727;49.934;8.656;2023-07-22T00:29:54;4.88;;;3.65;;
24559;SDS011;12727;49.934;8.656;2023-07-22T00:32:20;4.43;;;3.20;;
24559;SDS011;12727;49.934;8.656;2023-07-22T00:34:45;3.70;;;3.30;;
24559;SDS011;12727;49.934;8.656;2023-07-22T00:37:11;4.18;;;3.55;;
24559;SDS011;12727;49.934;8.656;2023-07-22T00:39:36;4.97;;;4.10;;
24559;SDS011;12727;49.934;8.656;2023-07-22T00:42:02;4.57;;;3.25;;
24559;SDS011;12727;49.934;8.656;2023-07-22T00:44:28;5.13;;;3.50;;
24559;SDS011;12727;49.934;8.656;2023-07-22T00:46:53;5.65;;;3.50;;
24559;SDS011;12727;49.934;8.656;2023-07-22T00:49:21;5.35;;;3.30;;
24559;SDS011;12727;49.934;8.656;2023-07-22T00:51:50;3.80;;;3.40;;
24559;SDS011;12727;49.934;8.656;2023-07-22T00:54:15;3.80;;;3.20;;
24559;SDS011;12727;49.934;8.656;2023-07-22T00:56:41;4.65;;;3.28;;
24559;SDS011;12727;49.934;8.656;2023-07-22T00:59:08;5.97;;;3.28;;
24559;SDS011;12727;49.934;8.656;2023-07-22T01:01:34;5.35;;;3.70;;
24559;SDS011;12727;49.934;8.656;2023-07-22T01:03:59;4.32;;;3.42;;
24559;SDS011;12727;49.934;8.656;2023-07-22T01:06:26;6.28;;;3.50;;
24559;SDS011;12727;49.934;8.656;2023-07-22T01:08:55;7.47;;;3.10;;
24559;SDS011;12727;49.934;8.656;2023-07-22T01:11:22;4.90;;;3.00;;
24559;SDS011;12727;49.934;8.656;2023-07-22T01:13:47;7.78;;;3.15;;
24559;SDS011;12727;49.934;8.656;2023-07-22T01:16:13;6.88;;;3.72;;
24559;SDS011;12727;49.934;8.656;2023-07-22T01:18:38;5.28;;;3.65;;
24559;SDS011;12727;49.934;8.656;2023-07-22T01:21:05;4.53;;;3.08;;
24559;SDS011;12727;49.934;8.656;2023-07-22T01:23:31;4.05;;;3.65;;
24559;SDS011;12727;49.934;8.656;2023-07-22T01:25:57;4.30;;;3.60;;
24559;SDS011;12727;49.934;8.656;2023-07-22T01:28:23;5.60;;;3.40;;
24559;SDS011;12727;49.934;8.656;2023-07-22T01:30:49;7.10;;;3.50;;
24559;SDS011;12727;49.934;8.656;2023-07-22T01:33:14;5.75;;;3.15;;
24559;SDS011;12727;49.934;8.656;2023-07-22T01:35:40;4.22;;;3.70;;
24559;SDS011;12727;49.934;8.656;2023-07-22T01:38:06;5.47;;;3.25;;
24559;SDS011;12727;49.934;8.656;2023-07-22T01:40:33;5.53;;;3.20;;
24559;SDS011;12727;49.934;8.656;2023-07-22T01:42:58;7.35;;;3.58;;
24559;SDS011;12727;49.934;8.656;2023-07-22T01:45:24;6.07;;;3.35;;
24559;SDS011;12727;49.934;8.656;2023-07-22T01:47:50;6.88;;;3.35;;
24559;SDS011;12727;49.934;8.656;2023-07-22T01:50:16;3.75;;;3.20;;
24559;SDS011;12727;49.934;8.656;2023-07-22T01:52:43;5.18;;;3.13;;
24559;SDS011;12727;49.934;8.656;2023-07-22T01:55:09;8.27;;;3.47;;
24559;SDS011;12727;49.934;8.656;2023-07-22T01:57:35;5.53;;;3.60;;
24559;SDS011;12727;49.934;8.656;2023-07-22T02:00:01;5.68;;;3.50;;
24559;SDS011;12727;49.934;8.656;2023-07-22T02:02:30;3.72;;;3.30;;
24559;SDS011;12727;49.934;8.656;2023-07-22T02:04:55;7.32;;;3.58;;
24559;SDS011;12727;49.934;8.656;2023-07-22T02:07:21;4.15;;;3.60;;
24559;SDS011;12727;49.934;8.656;2023-07-22T02:09:47;6.35;;;3.22;;
24559;SDS011;12727;49.934;8.656;2023-07-22T02:12:12;3.75;;;3.22;;
24559;SDS011;12727;49.934;8.656;2023-07-22T02:14:38;4.78;;;3.25;;
24559;SDS011;12727;49.934;8.656;2023-07-22T02:17:04;7.28;;;3.30;;
24559;SDS011;12727;49.934;8.656;2023-07-22T02:19:29;4.72;;;3.70;;
24559;SDS011;12727;49.934;8.656;2023-07-22T02:21:55;4.60;;;3.22;;
24559;SDS011;12727;49.934;8.656;2023-07-22T02:24:20;4.95;;;3.67;;
24559;SDS011;12727;49.934;8.656;2023-07-22T02:26:47;3.78;;;3.38;;
24559;SDS011;12727;49.934;8.656;2023-07-22T02:29:13;3.65;;;3.08;;
24559;SDS011;12727;49.934;8.656;2023-07-22T02:31:38;4.72;;;3.80;;
24559;SDS011;12727;49.934;8.656;2023-07-22T02:34:04;4.90;;;3.55;;
24559;SDS011;12727;49.934;8.656;2023-07-22T02:36:30;5.05;;;3.67;;
24559;SDS011;12727;49.934;8.656;2023-07-22T02:38:56;5.35;;;3.50;;
24559;SDS011;12727;49.934;8.656;2023-07-22T02:41:21;5.43;;;3.67;;
24559;SDS011;12727;49.934;8.656;2023-07-22T02:43:47;4.97;;;3.55;;
24559;SDS011;12727;49.934;8.656;2023-07-22T02:46:12;4.88;;;3.78;;
24559;SDS011;12727;49.934;8.656;2023-07-22T02:48:38;6.60;;;3.80;;
24559;SDS011;12727;49.934;8.656;2023-07-22T02:51:08;5.05;;;3.83;;
24559;SDS011;12727;49.934;8.656;2023-07-22T02:53:34;5.03;;;3.50;;
24559;SDS011;12727;49.934;8.656;2023-07-22T02:56:03;5.47;;;4.63;;
24559;SDS011;12727;49.934;8.656;2023-07-22T02:58:29;5.45;;;4.03;;
24559;SDS011;12727;49.934;8.656;2023-07-22T03:00:55;4.85;;;3.95;;
24559;SDS011;12727;49.934;8.656;2023-07-22T03:03:22;5.63;;;3.78;;
24559;SDS011;12727;49.934;8.656;2023-07-22T03:05:48;8.27;;;3.63;;
24559;SDS011;12727;49.934;8.656;2023-07-22T03:08:14;5.75;;;3.75;;
24559;SDS011;12727;49.934;8.656;2023-07-22T03:10:40;5.65;;;3.85;;
24559;SDS011;12727;49.934;8.656;2023-07-22T03:13:05;5.45;;;4.13;;
24559;SDS011;12727;49.934;8.656;2023-07-22T03:15:32;6.30;;;4.18;;
24559;SDS011;12727;49.934;8.656;2023-07-22T03:17:58;5.13;;;3.90;;
24559;SDS011;12727;49.934;8.656;2023-07-22T03:20:24;5.70;;;4.07;;
24559;SDS011;12727;49.934;8.656;2023-07-22T03:22:51;8.55;;;3.65;;
24559;SDS011;12727;49.934;8.656;2023-07-22T03:25:16;6.25;;;3.78;;
24559;SDS011;12727;49.934;8.656;2023-07-22T03:27:42;6.00;;;3.90;;
24559;SDS011;12727;49.934;8.656;2023-07-22T03:30:10;6.05;;;4.15;;
24559;SDS011;12727;49.934;8.656;2023-07-22T03:32:40;5.97;;;4.78;;
24559;SDS011;12727;49.934;8.656;2023-07-22T03:35:18;5.82;;;4.53;;
24559;SDS011;12727;49.934;8.656;2023-07-22T03:37:43;5.90;;;5.13;;
24559;SDS011;12727;49.934;8.656;2023-07-22T03:40:09;4.15;;;3.75;;
24559;SDS011;12727;49.934;8.656;2023-07-22T03:42:55;6.40;;;4.00;;
24559;SDS011;12727;49.934;8.656;2023-07-22T03:45:22;6.55;;;4.22;;
24559;SDS011;12727;49.934;8.656;2023-07-22T03:47:52;5.28;;;3.83;;
24559;SDS011;12727;49.934;8.656;2023-07-22T03:50:22;5.20;;;3.78;;
24559;SDS011;12727;49.934;8.656;2023-07-22T03:52:47;4.15;;;3.75;;
24559;SDS011;12727;49.934;8.656;2023-07-22T03:55:13;4.97;;;3.53;;
24559;SDS011;12727;49.934;8.656;2023-07-22T03:57:38;5.38;;;3.67;;
24559;SDS011;12727;49.934;8.656;2023-07-22T04:00:05;4.57;;;3.75;;
24559;SDS011;12727;49.934;8.656;2023-07-22T04:02:34;5.82;;;3.95;;
24559;SDS011;12727;49.934;8.656;2023-07-22T04:05:00;6.72;;;3.90;;
24559;SDS011;12727;49.934;8.656;2023-07-22T04:07:25;6.15;;;4.35;;
24559;SDS011;12727;49.934;8.656;2023-07-22T04:09:51;7.75;;;4.90;;
24559;SDS011;12727;49.934;8.656;2023-07-22T04:12:16;6.10;;;4.65;;
24559;SDS011;12727;49.934;8.656;2023-07-22T04:14:42;12.63;;;5.72;;
24559;SDS011;12727;49.934;8.656;2023-07-22T04:17:07;6.18;;;5.57;;
24559;SDS011;12727;49.934;8.656;2023-07-22T04:19:33;8.25;;;5.95;;
24559;SDS011;12727;49.934;8.656;2023-07-22T04:21:59;12.65;;;6.50;;
24559;SDS011;12727;49.934;8.656;2023-07-22T04:24:29;7.55;;;5.90;;
24559;SDS011;12727;49.934;8.656;2023-07-22T04:26:55;9.15;;;5.78;;
24559;SDS011;12727;49.934;8.656;2023-07-22T04:29:21;7.78;;;5.50;;
24559;SDS011;12727;49.934;8.656;2023-07-22T04:31:46;7.72;;;5.75;;
24559;SDS011;12727;49.934;8.656;2023-07-22T04:34:12;7.95;;;6.32;;
24559;SDS011;12727;49.934;8.656;2023-07-22T04:36:38;6.97;;;5.95;;
24559;SDS011;12727;49.934;8.656;2023-07-22T04:39:03;7.32;;;5.18;;
24559;SDS011;12727;49.934;8.656;2023-07-22T04:41:32;7.57;;;4.90;;
24559;SDS011;12727;49.934;8.656;2023-07-22T04:43:58;8.52;;;5.60;;
24559;SDS011;12727;49.934;8.656;2023-07-22T04:46:24;8.40;;;5.22;;
24559;SDS011;12727;49.934;8.656;2023-07-22T04:48:50;7.60;;;5.00;;
24559;SDS011;12727;49.934;8.656;2023-07-22T04:51:20;6.60;;;4.22;;
24559;SDS011;12727;49.934;8.656;2023-07-22T04:53:45;8.85;;;3.95;;
24559;SDS011;12727;49.934;8.656;2023-07-22T04:56:11;4.55;;;3.42;;
24559;SDS011;12727;49.934;8.656;2023-07-22T04:58:36;5.72;;;3.88;;
24559;SDS011;12727;49.934;8.656;2023-07-22T05:01:02;7.07;;;4.18;;
24559;SDS011;12727;49.934;8.656;2023-07-22T05:03:27;5.65;;;3.80;;
24559;SDS011;12727;49.934;8.656;2023-07-22T05:05:53;8.65;;;4.30;;
24559;SDS011;12727;49.934;8.656;2023-07-22T05:08:18;6.72;;;4.57;;
24559;SDS011;12727;49.934;8.656;2023-07-22T05:10:44;5.55;;;4.45;;
24559;SDS011;12727;49.934;8.656;2023-07-22T05:13:09;6.57;;;4.35;;
24559;SDS011;12727;49.934;8.656;2023-07-22T05:15:35;6.57;;;4.28;;
24559;SDS011;12727;49.934;8.656;2023-07-22T05:18:01;6.35;;;4.20;;
24559;SDS011;12727;49.934;8.656;2023-07-22T05:20:26;4.97;;;3.92;;
24559;SDS011;12727;49.934;8.656;2023-07-22T05:22:52;7.85;;;4.53;;
24559;SDS011;12727;49.934;8.656;2023-07-22T05:25:17;6.40;;;4.05;;
24559;SDS011;12727;49.934;8.656;2023-07-22T05:27:43;4.85;;;4.35;;
24559;SDS011;12727;49.934;8.656;2023-07-22T05:30:08;4.43;;;4.03;;
24559;SDS011;12727;49.934;8.656;2023-07-22T05:32:35;7.03;;;4.30;;
24559;SDS011;12727;49.934;8.656;2023-07-22T05:35:01;6.13;;;4.30;;
24559;SDS011;12727;49.934;8.656;2023-07-22T05:37:29;6.45;;;4.30;;
24559;SDS011;12727;49.934;8.656;2023-07-22T05:39:54;5.00;;;4.15;;
24559;SDS011;12727;49.934;8.656;2023-07-22T05:42:20;5.85;;;4.18;;
24559;SDS011;12727;49.934;8.656;2023-07-22T05:44:45;6.53;;;4.30;;
24559;SDS011;12727;49.934;8.656;2023-07-22T05:47:11;5.82;;;4.00;;
24559;SDS011;12727;49.934;8.656;2023-07-22T05:49:36;4.85;;;3.80;;
24559;SDS011;12727;49.934;8.656;2023-07-22T05:52:02;8.05;;;3.95;;
24559;SDS011;12727;49.934;8.656;2023-07-22T05:54:28;5.22;;;3.72;;
24559;SDS011;12727;49.934;8.656;2023-07-22T05:56:53;4.18;;;3.28;;
24559;SDS011;12727;49.934;8.656;2023-07-22T05:59:19;6.60;;;3.80;;
24559;SDS011;12727;49.934;8.656;2023-07-22T06:01:45;6.00;;;3.90;;
24559;SDS011;12727;49.934;8.656;2023-07-22T06:04:10;6.57;;;4.05;;
24559;SDS011;12727;49.934;8.656;2023-07-22T06:06:36;6.38;;;4.10;;
24559;SDS011;12727;49.934;8.656;2023-07-22T06:09:01;5.15;;;3.88;;
24559;SDS011;12727;49.934;8.656;2023-07-22T06:11:27;7.15;;;3.55;;
24559;SDS011;12727;49.934;8.656;2023-07-22T06:13:53;5.22;;;3.78;;
24559;SDS011;12727;49.934;8.656;2023-07-22T06:16:19;7.28;;;3.53;;
24559;SDS011;12727;49.934;8.656;2023-07-22T06:18:44;5.35;;;3.63;;
24559;SDS011;12727;49.934;8.656;2023-07-22T06:21:10;5.68;;;3.75;;
24559;SDS011;12727;49.934;8.656;2023-07-22T06:23:35;9.10;;;4.10;;
24559;SDS011;12727;49.934;8.656;2023-07-22T06:26:01;3.90;;;3.50;;
24559;SDS011;12727;49.934;8.656;2023-07-22T06:28:27;5.97;;;4.20;;
24559;SDS011;12727;49.934;8.656;2023-07-22T06:30:53;10.15;;;4.55;;
24559;SDS011;12727;49.934;8.656;2023-07-22T06:33:18;6.78;;;3.80;;
24559;SDS011;12727;49.934;8.656;2023-07-22T06:35:44;8.20;;;4.10;;
24559;SDS011;12727;49.934;8.656;2023-07-22T06:38:09;10.23;;;4.50;;
24559;SDS011;12727;49.934;8.656;2023-07-22T06:40:35;7.13;;;4.88;;
24559;SDS011;12727;49.934;8.656;2023-07-22T06:43:00;7.82;;;5.00;;
24559;SDS011;12727;49.934;8.656;2023-07-22T06:45:26;6.72;;;4.88;;
24559;SDS011;12727;49.934;8.656;2023-07-22T06:47:51;9.05;;;5.30;;
24559;SDS011;12727;49.934;8.656;2023-07-22T06:50:17;6.45;;;5.53;;
24559;SDS011;12727;49.934;8.656;2023-07-22T06:52:42;7.85;;;5.70;;
24559;SDS011;12727;49.934;8.656;2023-07-22T06:55:08;7.10;;;5.20;;
24559;SDS011;12727;49.934;8.656;2023-07-22T06:57:33;7.40;;;5.47;;
24559;SDS011;12727;49.934;8.656;2023-07-22T06:59:59;7.15;;;5.05;;
24559;SDS011;12727;49.934;8.656;2023-07-22T07:02:25;7.85;;;5.20;;
24559;SDS011;12727;49.934;8.656;2023-07-22T07:04:51;8.63;;;5.05;;
24559;SDS011;12727;49.934;8.656;2023-07-22T07:07:17;6.93;;;5.05;;
24559;SDS011;12727;49.934;8.656;2023-07-22T07:09:42;7.65;;;4.45;;
24559;SDS011;12727;49.934;8.656;2023-07-22T07:12:08;7.65;;;5.30;;
24559;SDS011;12727;49.934;8.656;2023-07-22T07:14:34;7.30;;;4.68;;
24559;SDS011;12727;49.934;8.656;2023-07-22T07:17:00;7.55;;;4.68;;
24559;SDS011;12727;49.934;8.656;2023-07-22T07:19:27;6.47;;;5.05;;
24559;SDS011;12727;49.934;8.656;2023-07-22T07:21:53;9.80;;;4.88;;
24559;SDS011;12727;49.934;8.656;2023-07-22T07:24:18;7.07;;;4.10;;
24559;SDS011;12727;49.934;8.656;2023-07-22T07:26:44;6.22;;;4.65;;
24559;SDS011;12727;49.934;8.656;2023-07-22T07:29:10;6.75;;;3.97;;
24559;SDS011;12727;49.934;8.656;2023-07-22T07:31:36;6.80;;;3.92;;
24559;SDS011;12727;49.934;8.656;2023-07-22T07:34:02;8.15;;;3.33;;
24559;SDS011;12727;49.934;8.656;2023-07-22T07:36:28;4.07;;;3.30;;
24559;SDS011;12727;49.934;8.656;2023-07-22T07:38:54;4.70;;;3.30;;
24559;SDS011;12727;49.934;8.656;2023-07-22T07:41:20;5.65;;;3.88;;
24559;SDS011;12727;49.934;8.656;2023-07-22T07:43:46;4.97;;;3.60;;
24559;SDS011;12727;49.934;8.656;2023-07-22T07:46:13;5.38;;;3.35;;
24559;SDS011;12727;49.934;8.656;2023-07-22T07:48:45;4.57;;;3.42;;
24559;SDS011;12727;49.934;8.656;2023-07-22T07:51:22;4.63;;;3.58;;
24559;SDS011;12727;49.934;8.656;2023-07-22T07:53:49;5.72;;;3.55;;
24559;SDS011;12727;49.934;8.656;2023-07-22T07:56:16;4.80;;;3.45;;
24559;SDS011;12727;49.934;8.656;2023-07-22T07:58:43;3.97;;;3.30;;
24559;SDS011;12727;49.934;8.656;2023-07-22T08:01:09;6.35;;;3.33;;
24559;SDS011;12727;49.934;8.656;2023-07-22T08:03:35;4.60;;;3.50;;
24559;SDS011;12727;49.934;8.656;2023-07-22T08:06:02;6.50;;;3.17;;
24559;SDS011;12727;49.934;8.656;2023-07-22T08:08:28;4.82;;;2.97;;
24559;SDS011;12727;49.934;8.656;2023-07-22T08:10:58;5.78;;;3.13;;
24559;SDS011;12727;49.934;8.656;2023-07-22T08:13:28;5.03;;;3.80;;
24559;SDS011;12727;49.934;8.656;2023-07-22T08:15:59;6.63;;;3.35;;
24559;SDS011;12727;49.934;8.656;2023-07-22T08:18:26;4.97;;;3.25;;
24559;SDS011;12727;49.934;8.656;2023-07-22T08:20:52;4.10;;;3.00;;
24559;SDS011;12727;49.934;8.656;2023-07-22T08:23:19;3.55;;;2.90;;
24559;SDS011;12727;49.934;8.656;2023-07-22T08:25:44;5.90;;;2.80;;
24559;SDS011;12727;49.934;8.656;2023-07-22T08:28:10;3.70;;;2.85;;
24559;SDS011;12727;49.934;8.656;2023-07-22T08:30:36;4.53;;;3.00;;
24559;SDS011;12727;49.934;8.656;2023-07-22T08:33:02;5.43;;;3.08;;
24559;SDS011;12727;49.934;8.656;2023-07-22T08:35:27;7.10;;;3.35;;
24559;SDS011;12727;49.934;8.656;2023-07-22T08:37:53;4.70;;;3.30;;
24559;SDS011;12727;49.934;8.656;2023-07-22T08:40:19;3.80;;;3.00;;
24559;SDS011;12727;49.934;8.656;2023-07-22T08:42:45;4.60;;;3.20;;
24559;SDS011;12727;49.934;8.656;2023-07-22T08:45:11;4.30;;;3.10;;
24559;SDS011;12727;49.934;8.656;2023-07-22T08:47:39;5.93;;;3.42;;
24559;SDS011;12727;49.934;8.656;2023-07-22T08:50:11;4.38;;;3.38;;
24559;SDS011;12727;49.934;8.656;2023-07-22T08:52:44;5.78;;;3.15;;
24559;SDS011;12727;49.934;8.656;2023-07-22T08:55:11;3.35;;;2.70;;
24559;SDS011;12727;49.934;8.656;2023-07-22T08:57:37;6.70;;;3.33;;
24559;SDS011;12727;49.934;8.656;2023-07-22T09:00:04;4.82;;;3.03;;
24559;SDS011;12727;49.934;8.656;2023-07-22T09:02:32;5.55;;;3.60;;
24559;SDS011;12727;49.934;8.656;2023-07-22T09:04:58;5.13;;;3.20;;
24559;SDS011;12727;49.934;8.656;2023-07-22T09:07:24;5.60;;;3.15;;
24559;SDS011;12727;49.934;8.656;2023-07-22T09:09:50;4.70;;;3.00;;
24559;SDS011;12727;49.934;8.656;2023-07-22T09:12:16;3.80;;;2.80;;
24559;SDS011;12727;49.934;8.656;2023-07-22T09:14:42;6.50;;;2.75;;
24559;SDS011;12727;49.934;8.656;2023-07-22T09:17:10;4.32;;;3.40;;
24559;SDS011;12727;49.934;8.656;2023-07-22T09:19:35;3.60;;;2.95;;
24559;SDS011;12727;49.934;8.656;2023-07-22T09:22:01;4.32;;;2.97;;
24559;SDS011;12727;49.934;8.656;2023-07-22T09:24:26;5.93;;;3.00;;
24559;SDS011;12727;49.934;8.656;2023-07-22T09:26:55;8.30;;;3.58;;
24559;SDS011;12727;49.934;8.656;2023-07-22T09:29:35;6.22;;;3.90;;
24559;SDS011;12727;49.934;8.656;2023-07-22T09:32:02;4.75;;;3.45;;
24559;SDS011;12727;49.934;8.656;2023-07-22T09:34:28;5.35;;;3.03;;
24559;SDS011;12727;49.934;8.656;2023-07-22T09:36:55;4.68;;;3.05;;
24559;SDS011;12727;49.934;8.656;2023-07-22T09:39:29;4.65;;;2.97;;
24559;SDS011;12727;49.934;8.656;2023-07-22T09:41:54;7.18;;;3.17;;
24559;SDS011;12727;49.934;8.656;2023-07-22T09:44:21;8.55;;;3.50;;
24559;SDS011;12727;49.934;8.656;2023-07-22T09:46:47;8.55;;;3.30;;
24559;SDS011;12727;49.934;8.656;2023-07-22T09:49:15;4.07;;;3.17;;
24559;SDS011;12727;49.934;8.656;2023-07-22T09:51:42;5.55;;;2.83;;
24559;SDS011;12727;49.934;8.656;2023-07-22T09:54:08;5.80;;;2.85;;
24559;SDS011;12727;49.934;8.656;2023-07-22T09:56:44;4.43;;;2.42;;
24559;SDS011;12727;49.934;8.656;2023-07-22T09:59:11;4.68;;;2.60;;
24559;SDS011;12727;49.934;8.656;2023-07-22T10:01:40;5.82;;;2.90;;
24559;SDS011;12727;49.934;8.656;2023-07-22T10:04:06;4.85;;;2.55;;
24559;SDS011;12727;49.934;8.656;2023-07-22T10:06:32;5.05;;;2.50;;
24559;SDS011;12727;49.934;8.656;2023-07-22T10:09:05;4.10;;;2.65;;
24559;SDS011;12727;49.934;8.656;2023-07-22T10:11:33;6.40;;;2.63;;
24559;SDS011;12727;49.934;8.656;2023-07-22T10:14:00;3.88;;;2.63;;
24559;SDS011;12727;49.934;8.656;2023-07-22T10:16:27;5.07;;;2.47;;
24559;SDS011;12727;49.934;8.656;2023-07-22T10:18:53;5.97;;;3.00;;
24559;SDS011;12727;49.934;8.656;2023-07-22T10:21:19;5.50;;;3.00;;
24559;SDS011;12727;49.934;8.656;2023-07-22T10:23:46;4.88;;;2.92;;
24559;SDS011;12727;49.934;8.656;2023-07-22T10:26:13;4.07;;;2.60;;
24559;SDS011;12727;49.934;8.656;2023-07-22T10:28:41;4.25;;;2.80;;
24559;SDS011;12727;49.934;8.656;2023-07-22T10:31:08;5.13;;;2.70;;
24559;SDS011;12727;49.934;8.656;2023-07-22T10:33:34;3.97;;;2.53;;
24559;SDS011;12727;49.934;8.656;2023-07-22T10:36:07;4.65;;;3.17;;
24559;SDS011;12727;49.934;8.656;2023-07-22T10:38:37;4.45;;;2.80;;
24559;SDS011;12727;49.934;8.656;2023-07-22T10:41:11;3.95;;;2.70;;
24559;SDS011;12727;49.934;8.656;2023-07-22T10:43:38;4.18;;;3.03;;
24559;SDS011;12727;49.934;8.656;2023-07-22T10:46:14;3.83;;;2.75;;
24559;SDS011;12727;49.934;8.656;2023-07-22T10:48:40;5.40;;;3.03;;
24559;SDS011;12727;49.934;8.656;2023-07-22T10:51:10;5.05;;;2.67;;
24559;SDS011;12727;49.934;8.656;2023-07-22T10:53:41;6.00;;;3.25;;
24559;SDS011;12727;49.934;8.656;2023-07-22T10:56:21;5.05;;;3.30;;
24559;SDS011;12727;49.934;8.656;2023-07-22T11:01:24;5.63;;;2.90;;
24559;SDS011;12727;49.934;8.656;2023-07-22T11:09:32;7.63;;;3.05;;
24559;SDS011;12727;49.934;8.656;2023-07-22T11:11:54;4.50;;;3.08;;
24559;SDS011;12727;49.934;8.656;2023-07-22T11:14:25;5.72;;;2.80;;
24559;SDS011;12727;49.934;8.656;2023-07-22T11:16:52;4.10;;;3.20;;
24559;SDS011;12727;49.934;8.656;2023-07-22T11:19:19;5.50;;;3.35;;
24559;SDS011;12727;49.934;8.656;2023-07-22T11:21:46;7.95;;;3.38;;
24559;SDS011;12727;49.934;8.656;2023-07-22T11:24:13;5.70;;;2.70;;
24559;SDS011;12727;49.934;8.656;2023-07-22T11:26:40;4.88;;;3.03;;
24559;SDS011;12727;49.934;8.656;2023-07-22T11:29:07;5.82;;;3.13;;
24559;SDS011;12727;49.934;8.656;2023-07-22T11:31:34;6.00;;;2.70;;
24559;SDS011;12727;49.934;8.656;2023-07-22T11:34:07;5.32;;;3.00;;
24559;SDS011;12727;49.934;8.656;2023-07-22T11:36:33;7.10;;;3.10;;
24559;SDS011;12727;49.934;8.656;2023-07-22T11:39:02;5.28;;;2.95;;
24559;SDS011;12727;49.934;8.656;2023-07-22T11:41:29;6.25;;;3.30;;
24559;SDS011;12727;49.934;8.656;2023-07-22T11:43:58;5.55;;;2.40;;
24559;SDS011;12727;49.934;8.656;2023-07-22T11:46:28;3.70;;;2.70;;
24559;SDS011;12727;49.934;8.656;2023-07-22T11:48:54;8.15;;;3.20;;
24559;SDS011;12727;49.934;8.656;2023-07-22T11:51:24;5.63;;;3.10;;
24559;SDS011;12727;49.934;8.656;2023-07-22T11:53:50;5.03;;;2.80;;
24559;SDS011;12727;49.934;8.656;2023-07-22T11:56:24;8.02;;;3.00;;
24559;SDS011;12727;49.934;8.656;2023-07-22T11:58:56;6.35;;;3.50;;
24559;SDS011;12727;49.934;8.656;2023-07-22T12:01:22;4.47;;;2.67;;
24559;SDS011;12727;49.934;8.656;2023-07-22T12:03:48;5.93;;;3.05;;
24559;SDS011;12727;49.934;8.656;2023-07-22T12:06:20;4.13;;;3.22;;
24559;SDS011;12727;49.934;8.656;2023-07-22T12:08:46;7.85;;;3.05;;
24559;SDS011;12727;49.934;8.656;2023-07-22T12:11:16;3.65;;;2.60;;
24559;SDS011;12727;49.934;8.656;2023-07-22T12:13:49;5.82;;;2.88;;
24559;SDS011;12727;49.934;8.656;2023-07-22T12:16:35;8.18;;;3.17;;
24559;SDS011;12727;49.934;8.656;2023-07-22T12:19:03;5.70;;;3.03;;
24559;SDS011;12727;49.934;8.656;2023-07-22T12:21:29;5.18;;;3.17;;
24559;SDS011;12727;49.934;8.656;2023-07-22T12:23:54;7.18;;;3.05;;
24559;SDS011;12727;49.934;8.656;2023-07-22T12:26:23;4.88;;;2.47;;
24559;SDS011;12727;49.934;8.656;2023-07-22T12:28:49;5.32;;;2.95;;
24559;SDS011;12727;49.934;8.656;2023-07-22T12:31:14;4.07;;;2.80;;
24559;SDS011;12727;49.934;8.656;2023-07-22T12:33:40;5.03;;;2.85;;
24559;SDS011;12727;49.934;8.656;2023-07-22T12:36:06;5.35;;;2.75;;
24559;SDS011;12727;49.934;8.656;2023-07-22T12:38:31;6.55;;;2.80;;
24559;SDS011;12727;49.934;8.656;2023-07-22T12:40:57;3.28;;;2.60;;
24559;SDS011;12727;49.934;8.656;2023-07-22T12:43:22;4.03;;;2.67;;
24559;SDS011;12727;49.934;8.656;2023-07-22T12:45:48;7.60;;;2.60;;
24559;SDS011;12727;49.934;8.656;2023-07-22T12:48:14;5.97;;;3.25;;
24559;SDS011;12727;49.934;8.656;2023-07-22T12:50:41;5.82;;;2.72;;
24559;SDS011;12727;49.934;8.656;2023-07-22T12:53:06;3.75;;;2.63;;
24559;SDS011;12727;49.934;8.656;2023-07-22T12:55:33;3.95;;;2.67;;
24559;SDS011;12727;49.934;8.656;2023-07-22T12:57:59;2.72;;;2.15;;
24559;SDS011;12727;49.934;8.656;2023-07-22T13:00:24;3.92;;;2.47;;
24559;SDS011;12727;49.934;8.656;2023-07-22T13:02:50;5.40;;;2.25;;
24559;SDS011;12727;49.934;8.656;2023-07-22T13:05:15;4.28;;;2.33;;
24559;SDS011;12727;49.934;8.656;2023-07-22T13:07:41;4.07;;;2.60;;
24559;SDS011;12727;49.934;8.656;2023-07-22T13:10:06;4.78;;;2.70;;
24559;SDS011;12727;49.934;8.656;2023-07-22T13:12:35;3.25;;;2.13;;
24559;SDS011;12727;49.934;8.656;2023-07-22T13:15:02;3.08;;;2.45;;
24559;SDS011;12727;49.934;8.656;2023-07-22T13:17:28;5.38;;;2.50;;
24559;SDS011;12727;49.934;8.656;2023-07-22T13:19:54;4.05;;;2.28;;
24559;SDS011;12727;49.934;8.656;2023-07-22T13:22:19;3.33;;;2.75;;
24559;SDS011;12727;49.934;8.656;2023-07-22T13:24:45;4.32;;;2.20;;
24559;SDS011;12727;49.934;8.656;2023-07-22T13:27:11;6.35;;;2.70;;
24559;SDS011;12727;49.934;8.656;2023-07-22T13:29:36;2.75;;;2.10;;
24559;SDS011;12727;49.934;8.656;2023-07-22T13:32:02;3.00;;;2.20;;
24559;SDS011;12727;49.934;8.656;2023-07-22T13:34:29;4.80;;;2.70;;
24559;SDS011;12727;49.934;8.656;2023-07-22T13:36:54;2.95;;;2.30;;
24559;SDS011;12727;49.934;8.656;2023-07-22T13:39:20;5.00;;;2.60;;
24559;SDS011;12727;49.934;8.656;2023-07-22T13:41:46;4.97;;;2.53;;
24559;SDS011;12727;49.934;8.656;2023-07-22T13:44:12;5.53;;;2.90;;
24559;SDS011;12727;49.934;8.656;2023-07-22T13:46:38;4.57;;;2.55;;
24559;SDS011;12727;49.934;8.656;2023-07-22T13:49:03;4.18;;;2.78;;
24559;SDS011;12727;49.934;8.656;2023-07-22T13:51:29;3.67;;;2.65;;
24559;SDS011;12727;49.934;8.656;2023-07-22T13:53:54;5.07;;;2.65;;
24559;SDS011;12727;49.934;8.656;2023-07-22T13:56:20;5.38;;;2.80;;
24559;SDS011;12727;49.934;8.656;2023-07-22T13:58:46;4.05;;;2.83;;
24559;SDS011;12727;49.934;8.656;2023-07-22T14:01:12;5.20;;;2.55;;
24559;SDS011;12727;49.934;8.656;2023-07-22T14:03:38;4.85;;;2.40;;
24559;SDS011;12727;49.934;8.656;2023-07-22T14:06:04;5.70;;;2.65;;
24559;SDS011;12727;49.934;8.656;2023-07-22T14:08:29;4.43;;;2.85;;
24559;SDS011;12727;49.934;8.656;2023-07-22T14:10:55;5.75;;;2.95;;
24559;SDS011;12727;49.934;8.656;2023-07-22T14:13:21;4.82;;;2.60;;
24559;SDS011;12727;49.934;8.656;2023-07-22T14:15:46;4.22;;;2.95;;
24559;SDS011;12727;49.934;8.656;2023-07-22T14:18:12;6.32;;;3.20;;
24559;SDS011;12727;49.934;8.656;2023-07-22T14:20:42;8.52;;;3.13;;
24559;SDS011;12727;49.934;8.656;2023-07-22T14:23:08;4.07;;;2.63;;
24559;SDS011;12727;49.934;8.656;2023-07-22T14:25:33;3.97;;;2.58;;
24559;SDS011;12727;49.934;8.656;2023-07-22T14:27:59;4.82;;;2.55;;
24559;SDS011;12727;49.934;8.656;2023-07-22T14:30:24;6.15;;;2.50;;
24559;SDS011;12727;49.934;8.656;2023-07-22T14:32:50;4.75;;;2.70;;
24559;SDS011;12727;49.934;8.656;2023-07-22T14:35:16;7.32;;;3.10;;
24559;SDS011;12727;49.934;8.656;2023-07-22T14:37:41;6.15;;;2.97;;
24559;SDS011;12727;49.934;8.656;2023-07-22T14:40:08;4.95;;;2.90;;
24559;SDS011;12727;49.934;8.656;2023-07-22T14:42:34;5.30;;;2.95;;
24559;SDS011;12727;49.934;8.656;2023-07-22T14:44:59;2.95;;;2.25;;
24559;SDS011;12727;49.934;8.656;2023-07-22T14:47:25;4.75;;;2.58;;
24559;SDS011;12727;49.934;8.656;2023-07-22T14:49:51;3.20;;;2.30;;
24559;SDS011;12727;49.934;8.656;2023-07-22T14:52:16;3.67;;;2.40;;